createdAt,value
2023-05-07T00:02:19.930Z,1.95
2023-05-07T00:04:47.189Z,1.89
2023-05-07T00:07:14.261Z,1.83
2023-05-07T00:09:41.307Z,1.80
2023-05-07T00:12:08.734Z,1.75
2023-05-07T00:14:35.709Z,1.70
2023-05-07T00:17:02.957Z,1.67
2023-05-07T00:19:30.003Z,1.62
2023-05-07T00:21:57.591Z,1.60
2023-05-07T00:24:25.229Z,1.57
2023-05-07T00:26:52.267Z,1.53
2023-05-07T00:29:19.393Z,1.50
2023-05-07T00:31:47.025Z,1.47
2023-05-07T00:34:14.281Z,1.46
2023-05-07T00:36:42.204Z,1.45
2023-05-07T00:39:09.249Z,1.42
2023-05-07T00:41:36.292Z,1.38
2023-05-07T00:44:04.878Z,1.34
2023-05-07T00:46:32.128Z,1.31
2023-05-07T00:48:59.279Z,1.27
2023-05-07T00:51:27.918Z,1.23
2023-05-07T00:53:54.933Z,1.19
2023-05-07T00:56:22.668Z,1.13
2023-05-07T00:58:50.291Z,1.11
2023-05-07T01:01:17.877Z,1.08
2023-05-07T01:03:45.177Z,1.06
2023-05-07T01:06:13.945Z,1.04
2023-05-07T01:08:42.011Z,1.04
2023-05-07T01:11:09.195Z,1.03
2023-05-07T01:13:36.505Z,1.06
2023-05-07T01:16:04.382Z,1.09
2023-05-07T01:18:31.933Z,1.06
2023-05-07T01:20:59.800Z,1.01
2023-05-07T01:23:27.866Z,0.95
2023-05-07T01:25:55.427Z,0.88
2023-05-07T01:28:24.011Z,0.84
2023-05-07T01:30:56.717Z,0.82
2023-05-07T01:33:24.558Z,0.77
2023-05-07T01:37:48.244Z,0.70
2023-05-07T01:40:15.389Z,0.65
2023-05-07T01:42:43.256Z,0.63
2023-05-07T01:45:11.008Z,0.61
2023-05-07T01:47:38.575Z,0.61
2023-05-07T01:50:07.238Z,0.61
2023-05-07T01:52:34.199Z,0.61
2023-05-07T01:55:01.247Z,0.60
2023-05-07T01:57:28.293Z,0.58
2023-05-07T01:59:55.458Z,0.57
2023-05-07T02:02:23.122Z,0.53
2023-05-07T02:04:50.982Z,0.50
2023-05-07T02:07:18.942Z,0.46
2023-05-07T02:09:46.191Z,0.42
2023-05-07T02:12:13.451Z,0.40
2023-05-07T02:14:40.596Z,0.39
2023-05-07T02:17:08.878Z,0.39
2023-05-07T02:19:36.423Z,0.41
2023-05-07T02:22:03.522Z,0.40
2023-05-07T02:24:31.444Z,0.39
2023-05-07T02:26:58.594Z,0.38
2023-05-07T02:29:26.418Z,0.40
2023-05-07T02:31:54.470Z,0.41
2023-05-07T02:34:21.580Z,0.41
2023-05-07T02:36:49.446Z,0.44
2023-05-07T02:39:19.156Z,0.47
2023-05-07T02:41:46.709Z,0.52
2023-05-07T02:44:13.766Z,0.59
2023-05-07T02:46:40.910Z,0.70
2023-05-07T02:49:09.695Z,0.82
2023-05-07T02:51:36.742Z,0.92
2023-05-07T02:54:06.042Z,0.97
2023-05-07T02:56:33.495Z,1.02
2023-05-07T02:59:00.456Z,1.08
2023-05-07T03:01:30.076Z,1.12
2023-05-07T03:04:02.600Z,1.16
2023-05-07T03:06:29.882Z,1.24
2023-05-07T03:08:56.824Z,1.33
2023-05-07T03:11:23.868Z,1.46
2023-05-07T03:13:51.327Z,1.59
2023-05-07T03:16:19.155Z,1.68
2023-05-07T03:18:46.312Z,1.78
2023-05-07T03:21:13.392Z,1.88
2023-05-07T03:23:40.432Z,1.99
2023-05-07T03:26:08.628Z,2.11
2023-05-07T03:28:36.066Z,2.25
2023-05-07T03:31:04.689Z,2.40
2023-05-07T03:33:34.454Z,2.57
2023-05-07T03:36:01.596Z,2.72
2023-05-07T03:38:28.960Z,2.88
2023-05-07T03:40:56.112Z,3.06
2023-05-07T03:43:23.168Z,3.26
2023-05-07T03:45:56.067Z,3.51
2023-05-07T03:48:26.056Z,3.78
2023-05-07T03:50:54.432Z,4.02
2023-05-07T03:53:21.580Z,4.24
2023-05-07T03:55:48.727Z,4.45
2023-05-07T03:58:16.614Z,4.67
2023-05-07T04:00:43.859Z,4.90
2023-05-07T04:03:18.659Z,5.11
2023-05-07T04:05:45.933Z,5.33
2023-05-07T04:08:12.980Z,5.54
2023-05-07T04:10:42.075Z,5.69
2023-05-07T04:13:10.710Z,5.82
2023-05-07T04:15:37.801Z,5.96
2023-05-07T04:18:07.794Z,6.10
2023-05-07T04:20:37.528Z,6.26
2023-05-07T04:23:05.703Z,6.39
2023-05-07T04:25:33.366Z,6.52
2023-05-07T04:28:09.320Z,6.65
2023-05-07T04:30:36.288Z,6.76
2023-05-07T04:33:03.859Z,6.92
2023-05-07T04:35:32.203Z,7.08
2023-05-07T04:37:59.452Z,7.26
2023-05-07T04:40:26.913Z,7.46
2023-05-07T04:42:54.980Z,7.68
2023-05-07T04:45:22.754Z,7.81
2023-05-07T04:47:51.177Z,7.92
2023-05-07T04:50:20.520Z,7.86
2023-05-07T04:52:48.195Z,7.74
2023-05-07T04:55:16.048Z,7.63
2023-05-07T04:57:43.297Z,7.63
2023-05-07T05:00:12.295Z,7.75
2023-05-07T05:02:39.839Z,7.92
2023-05-07T05:05:08.024Z,8.09
2023-05-07T05:07:35.071Z,8.30
2023-05-07T05:10:04.202Z,8.50
2023-05-07T05:12:32.060Z,8.63
2023-05-07T05:14:59.704Z,8.81
2023-05-07T05:17:26.989Z,9.01
2023-05-07T05:19:54.004Z,9.12
2023-05-07T05:22:22.473Z,9.17
2023-05-07T05:24:49.932Z,9.13
2023-05-07T05:27:17.011Z,9.12
2023-05-07T05:29:44.538Z,9.20
2023-05-07T05:32:12.196Z,9.30
2023-05-07T05:34:39.463Z,9.23
2023-05-07T05:37:07.318Z,9.23
2023-05-07T05:39:35.188Z,9.21
2023-05-07T05:42:03.836Z,9.24
2023-05-07T05:44:31.529Z,9.37
2023-05-07T05:47:00.434Z,9.38
2023-05-07T05:49:27.792Z,9.45
2023-05-07T05:51:55.137Z,9.49
2023-05-07T05:54:24.323Z,9.58
2023-05-07T05:56:51.478Z,9.65
2023-05-07T05:59:19.226Z,9.67
2023-05-07T06:01:46.577Z,9.65
2023-05-07T06:04:13.745Z,9.55
2023-05-07T06:06:41.005Z,9.55
2023-05-07T06:09:08.145Z,9.48
2023-05-07T06:11:38.567Z,9.55
2023-05-07T06:14:06.434Z,9.70
2023-05-07T06:16:34.118Z,9.79
2023-05-07T06:19:01.877Z,9.84
2023-05-07T06:21:29.008Z,9.94
2023-05-07T06:23:56.157Z,10.00
2023-05-07T06:26:23.514Z,9.95
2023-05-07T06:28:50.865Z,9.90
2023-05-07T06:31:21.731Z,9.90
2023-05-07T06:34:08.944Z,9.97
2023-05-07T06:36:38.222Z,10.04
2023-05-07T06:39:28.420Z,10.14
2023-05-07T06:41:55.565Z,10.28
2023-05-07T06:44:27.215Z,10.45
2023-05-07T06:47:07.584Z,10.40
2023-05-07T06:49:35.031Z,10.23
2023-05-07T06:52:02.796Z,10.23
2023-05-07T06:54:30.555Z,10.47
2023-05-07T06:56:58.937Z,10.78
2023-05-07T06:59:27.323Z,10.99
2023-05-07T07:01:55.979Z,10.97
2023-05-07T07:04:25.148Z,10.88
2023-05-07T07:06:59.308Z,10.93
2023-05-07T07:09:26.235Z,11.03
2023-05-07T07:11:54.319Z,11.15
2023-05-07T07:14:21.999Z,11.29
2023-05-07T07:16:51.285Z,11.42
2023-05-07T07:19:19.146Z,11.43
2023-05-07T07:21:47.424Z,11.45
2023-05-07T07:24:20.357Z,11.55
2023-05-07T07:26:49.296Z,11.72
2023-05-07T07:29:17.177Z,11.93
2023-05-07T07:31:44.389Z,12.07
2023-05-07T07:34:11.477Z,12.15
2023-05-07T07:36:46.100Z,12.15
2023-05-07T07:39:16.815Z,12.21
2023-05-07T07:41:44.085Z,12.34
2023-05-07T07:44:15.803Z,12.46
2023-05-07T07:46:45.626Z,12.63
2023-05-07T07:49:12.895Z,12.75
2023-05-07T07:51:40.270Z,12.82
2023-05-07T07:54:07.516Z,12.90
2023-05-07T07:56:37.518Z,13.08
2023-05-07T07:59:04.664Z,13.34
2023-05-07T08:01:32.426Z,13.66
2023-05-07T08:04:00.247Z,13.81
2023-05-07T08:06:28.161Z,13.74
2023-05-07T08:08:55.517Z,13.67
2023-05-07T08:11:23.282Z,13.56
2023-05-07T08:13:50.740Z,13.37
2023-05-07T08:16:17.802Z,13.26
2023-05-07T08:18:47.039Z,13.10
2023-05-07T08:21:14.434Z,13.09
2023-05-07T08:23:41.482Z,13.11
2023-05-07T08:26:09.873Z,13.29
2023-05-07T08:28:37.035Z,13.64
2023-05-07T08:31:04.246Z,13.91
2023-05-07T08:33:35.126Z,13.97
2023-05-07T08:36:02.251Z,14.04
2023-05-07T08:38:29.921Z,14.04
2023-05-07T08:40:57.575Z,14.01
2023-05-07T08:43:27.589Z,14.11
2023-05-07T08:45:55.522Z,14.16
2023-05-07T08:48:25.484Z,14.23
2023-05-07T08:50:58.856Z,14.23
2023-05-07T08:53:26.937Z,14.73
2023-05-07T08:55:54.913Z,15.30
2023-05-07T08:58:22.273Z,15.30
2023-05-07T09:00:49.922Z,15.06
2023-05-07T09:03:17.864Z,14.99
2023-05-07T09:05:47.388Z,14.98
2023-05-07T09:08:16.377Z,14.88
2023-05-07T09:10:43.536Z,14.80
2023-05-07T09:13:12.259Z,14.86
2023-05-07T09:15:39.780Z,14.97
2023-05-07T09:18:07.118Z,14.96
2023-05-07T09:20:35.103Z,14.79
2023-05-07T09:23:02.458Z,14.51
2023-05-07T09:25:31.324Z,14.30
2023-05-07T09:28:00.047Z,14.10
2023-05-07T09:30:33.213Z,13.93
2023-05-07T09:33:02.099Z,13.72
2023-05-07T09:35:29.463Z,13.47
2023-05-07T09:38:02.356Z,13.41
2023-05-07T09:40:32.157Z,13.46
2023-05-07T09:43:12.962Z,13.82
2023-05-07T09:45:43.524Z,14.38
2023-05-07T09:48:11.736Z,14.83
2023-05-07T09:50:47.670Z,15.16
2023-05-07T09:53:14.935Z,15.47
2023-05-07T09:55:42.704Z,15.52
2023-05-07T09:58:10.170Z,15.55
2023-05-07T10:00:37.627Z,15.65
2023-05-07T10:03:08.297Z,15.78
2023-05-07T10:05:41.638Z,15.77
2023-05-07T10:08:09.306Z,15.77
2023-05-07T10:10:37.164Z,15.83
2023-05-07T10:13:07.132Z,16.03
2023-05-07T10:15:34.537Z,16.12
2023-05-07T10:18:02.115Z,16.03
2023-05-07T10:20:30.266Z,16.17
2023-05-07T10:22:57.729Z,16.33
2023-05-07T10:25:33.279Z,16.46
2023-05-07T10:28:07.455Z,16.47
2023-05-07T10:31:02.665Z,16.47
2023-05-07T10:33:35.580Z,16.54
2023-05-07T10:36:05.658Z,16.60
2023-05-07T10:38:33.573Z,16.75
2023-05-07T10:41:00.934Z,16.78
2023-05-07T10:43:43.217Z,16.68
2023-05-07T10:46:17.567Z,16.70
2023-05-07T10:49:03.229Z,16.90
2023-05-07T10:51:37.338Z,16.92
2023-05-07T10:54:20.892Z,16.53
2023-05-07T10:56:57.034Z,16.26
2023-05-07T10:59:35.262Z,16.31
2023-05-07T11:02:09.304Z,16.33
2023-05-07T11:05:24.575Z,16.25
2023-05-07T11:08:13.381Z,16.06
2023-05-07T11:10:55.170Z,15.96
2023-05-07T11:13:48.742Z,15.95
2023-05-07T11:16:31.289Z,16.16
2023-05-07T11:19:08.435Z,16.47
2023-05-07T11:21:41.528Z,16.68
2023-05-07T11:24:43.998Z,16.64
2023-05-07T11:27:12.897Z,16.74
2023-05-07T11:29:39.838Z,16.72
2023-05-07T11:32:11.516Z,16.56
2023-05-07T11:34:43.656Z,16.66
2023-05-07T11:37:10.718Z,16.79
2023-05-07T11:39:43.184Z,16.86
2023-05-07T11:42:29.995Z,16.78
2023-05-07T11:44:56.924Z,16.60
2023-05-07T11:47:23.904Z,16.53
2023-05-07T11:49:52.071Z,16.60
2023-05-07T11:52:19.817Z,16.51
2023-05-07T11:54:54.055Z,16.33
2023-05-07T11:57:21.177Z,16.34
2023-05-07T11:59:51.195Z,16.51
2023-05-07T12:02:18.651Z,16.69
2023-05-07T12:04:45.902Z,16.83
2023-05-07T12:07:14.644Z,16.85
2023-05-07T12:09:42.561Z,16.71
2023-05-07T12:12:09.704Z,16.67
2023-05-07T12:14:44.339Z,16.73
2023-05-07T12:17:12.790Z,16.85
2023-05-07T12:19:40.980Z,16.78
2023-05-07T12:22:09.474Z,16.80
2023-05-07T12:24:50.919Z,17.02
2023-05-07T12:27:18.105Z,17.38
2023-05-07T12:29:47.533Z,17.59
2023-05-07T12:32:19.000Z,17.79
2023-05-07T12:34:46.177Z,17.59
2023-05-07T12:37:14.006Z,17.23
2023-05-07T12:39:51.259Z,16.99
2023-05-07T12:42:20.938Z,16.76
2023-05-07T12:44:47.985Z,16.47
2023-05-07T12:47:16.086Z,16.31
2023-05-07T12:49:43.255Z,16.60
2023-05-07T12:52:10.697Z,16.95
2023-05-07T12:54:38.978Z,17.26
2023-05-07T12:57:07.557Z,17.40
2023-05-07T12:59:39.409Z,17.34
2023-05-07T13:02:07.276Z,17.03
2023-05-07T13:04:35.459Z,16.72
2023-05-07T13:10:35.894Z,16.98
2023-05-07T13:13:03.802Z,17.28
2023-05-07T13:15:30.699Z,17.65
2023-05-07T13:17:57.623Z,17.94
2023-05-07T13:20:25.098Z,18.12
2023-05-07T13:22:52.760Z,18.25
2023-05-07T13:25:19.810Z,18.37
2023-05-07T13:27:51.516Z,18.50
2023-05-07T13:30:23.630Z,18.51
2023-05-07T13:32:52.565Z,18.60
2023-05-07T13:35:19.462Z,18.98
2023-05-07T13:37:46.323Z,19.10
2023-05-07T13:40:13.648Z,19.16
2023-05-07T13:42:40.909Z,19.16
2023-05-07T13:45:09.578Z,19.16
2023-05-07T13:47:40.182Z,19.25
2023-05-07T13:50:11.980Z,19.30
2023-05-07T13:52:45.740Z,19.57
2023-05-07T13:55:55.429Z,19.55
2023-05-07T13:58:22.479Z,19.26
2023-05-07T14:00:49.587Z,18.73
2023-05-07T14:03:17.086Z,18.02
2023-05-07T14:05:44.339Z,17.61
2023-05-07T14:08:12.199Z,17.55
2023-05-07T14:10:39.245Z,17.82
2023-05-07T14:13:06.466Z,18.20
2023-05-07T14:15:36.314Z,18.57
2023-05-07T14:18:03.634Z,18.91
2023-05-07T14:20:32.255Z,19.20
2023-05-07T14:22:59.310Z,19.33
2023-05-07T14:25:26.348Z,19.34
2023-05-07T14:27:53.282Z,19.39
2023-05-07T14:30:20.538Z,19.11
2023-05-07T14:32:47.620Z,18.66
2023-05-07T14:35:14.973Z,18.27
2023-05-07T14:37:42.298Z,18.14
2023-05-07T14:40:10.105Z,18.18
2023-05-07T14:42:37.303Z,18.24
2023-05-07T14:45:04.968Z,18.12
2023-05-07T14:47:32.013Z,17.96
2023-05-07T14:50:00.215Z,17.71
2023-05-07T14:52:27.442Z,17.44
2023-05-07T14:54:54.492Z,17.15
2023-05-07T14:57:21.741Z,16.89
2023-05-07T14:59:48.786Z,16.62
2023-05-07T15:02:16.542Z,16.33
2023-05-07T15:04:47.172Z,16.07
2023-05-07T15:07:19.179Z,15.95
2023-05-07T15:09:46.291Z,15.84
2023-05-07T15:12:13.445Z,15.62
2023-05-07T15:14:41.206Z,15.39
2023-05-07T15:17:09.278Z,15.17
2023-05-07T15:19:36.342Z,14.95
2023-05-07T15:22:04.017Z,14.77
2023-05-07T15:24:31.543Z,14.62
2023-05-07T15:27:03.302Z,14.49
2023-05-07T15:29:31.059Z,14.36
2023-05-07T15:31:58.569Z,14.23
2023-05-07T15:34:25.673Z,14.11
2023-05-07T15:36:52.592Z,14.03
2023-05-07T15:39:19.661Z,13.97
2023-05-07T15:41:46.906Z,13.87
2023-05-07T15:44:13.970Z,13.74
2023-05-07T15:46:40.901Z,13.63
2023-05-07T15:49:08.634Z,13.53
2023-05-07T15:51:35.943Z,13.43
2023-05-07T15:54:02.965Z,13.37
2023-05-07T15:56:33.999Z,13.30
2023-05-07T15:59:01.264Z,13.24
2023-05-07T16:01:28.759Z,13.17
2023-05-07T16:03:56.204Z,13.08
2023-05-07T16:06:23.218Z,13.02
2023-05-07T16:08:50.162Z,12.94
2023-05-07T16:11:17.110Z,12.88
2023-05-07T16:13:44.156Z,12.83
2023-05-07T16:16:11.203Z,12.76
2023-05-07T16:18:38.244Z,12.72
2023-05-07T16:21:06.529Z,12.68
2023-05-07T16:23:33.571Z,12.64
2023-05-07T16:26:00.615Z,12.61
2023-05-07T16:28:27.663Z,12.59
2023-05-07T16:30:54.725Z,12.57
2023-05-07T16:33:21.757Z,12.55
2023-05-07T16:35:53.116Z,12.51
2023-05-07T16:38:20.147Z,12.47
2023-05-07T16:40:47.212Z,12.43
2023-05-07T16:43:14.238Z,12.38
2023-05-07T16:45:41.391Z,12.33
2023-05-07T16:48:08.763Z,12.30
2023-05-07T16:50:36.201Z,12.27
2023-05-07T16:53:03.249Z,12.27
2023-05-07T16:55:38.004Z,12.24
2023-05-07T16:58:09.934Z,12.21
2023-05-07T17:00:49.243Z,12.18
2023-05-07T17:03:17.628Z,12.16
2023-05-07T17:05:44.907Z,12.13
2023-05-07T17:08:14.079Z,12.10
2023-05-07T17:10:41.978Z,12.07
2023-05-07T17:13:09.076Z,12.04
2023-05-07T17:15:36.034Z,12.02
2023-05-07T17:18:03.162Z,12.00
2023-05-07T17:20:30.220Z,11.97
2023-05-07T17:22:57.306Z,11.95
2023-05-07T17:25:24.556Z,11.93
2023-05-07T17:27:51.600Z,11.91
2023-05-07T17:30:19.070Z,11.88
2023-05-07T17:32:46.441Z,11.83
2023-05-07T17:35:13.561Z,11.79
2023-05-07T17:37:40.814Z,11.76
2023-05-07T17:40:08.471Z,11.75
2023-05-07T17:42:35.723Z,11.71
2023-05-07T17:45:02.766Z,11.68
2023-05-07T17:47:30.589Z,11.65
2023-05-07T17:49:58.174Z,11.63
2023-05-07T17:52:25.857Z,11.60
2023-05-07T17:54:52.900Z,11.58
2023-05-07T17:57:19.961Z,11.56
2023-05-07T17:59:46.997Z,11.51
2023-05-07T18:02:14.093Z,11.48
2023-05-07T18:04:41.495Z,11.46
2023-05-07T18:07:08.643Z,11.44
2023-05-07T18:09:35.894Z,11.44
2023-05-07T18:12:02.942Z,11.42
2023-05-07T18:14:30.195Z,11.41
2023-05-07T18:16:57.568Z,11.39
2023-05-07T18:19:26.979Z,11.36
2023-05-07T18:21:55.630Z,11.33
2023-05-07T18:24:22.583Z,11.29
2023-05-07T18:26:49.733Z,11.26
2023-05-07T18:29:16.790Z,11.23
2023-05-07T18:31:43.852Z,11.21
2023-05-07T18:34:10.983Z,11.19
2023-05-07T18:36:38.014Z,11.16
2023-05-07T18:39:05.063Z,11.12
2023-05-07T18:41:32.107Z,11.10
2023-05-07T18:43:59.158Z,11.06
2023-05-07T18:46:26.272Z,11.03
2023-05-07T18:48:55.093Z,11.00
2023-05-07T18:51:22.039Z,10.97
2023-05-07T18:53:49.209Z,10.95
2023-05-07T18:56:16.133Z,10.94
2023-05-07T18:58:43.077Z,10.90
2023-05-07T19:01:11.014Z,10.86
2023-05-07T19:03:38.220Z,10.80
2023-05-07T19:06:06.172Z,10.77
2023-05-07T19:08:33.410Z,10.75
2023-05-07T19:11:00.355Z,10.73
2023-05-07T19:13:27.939Z,10.71
2023-05-07T19:15:55.227Z,10.68
2023-05-07T19:18:22.324Z,10.67
2023-05-07T19:20:52.092Z,10.62
2023-05-07T19:23:21.748Z,10.59
2023-05-07T19:25:49.196Z,10.55
2023-05-07T19:28:16.646Z,10.52
2023-05-07T19:30:43.640Z,10.51
2023-05-07T19:33:11.009Z,10.49
2023-05-07T19:35:38.318Z,10.48
2023-05-07T19:38:06.273Z,10.45
2023-05-07T19:40:33.324Z,10.44
2023-05-07T19:43:00.471Z,10.44
2023-05-07T19:45:27.518Z,10.42
2023-05-07T19:47:54.622Z,10.40
2023-05-07T19:50:22.534Z,10.36
2023-05-07T19:52:49.578Z,10.33
2023-05-07T19:55:16.635Z,10.29
2023-05-07T19:57:43.994Z,10.26
2023-05-07T20:00:12.013Z,10.20
2023-05-07T20:02:41.862Z,10.13
2023-05-07T20:05:11.416Z,10.06
2023-05-07T20:07:38.306Z,9.98
2023-05-07T20:10:06.494Z,9.92
2023-05-07T20:12:33.531Z,9.87
2023-05-07T20:15:00.780Z,9.83
2023-05-07T20:17:28.179Z,9.78
2023-05-07T20:19:55.689Z,9.74
2023-05-07T20:22:24.427Z,9.70
2023-05-07T20:24:51.433Z,9.65
2023-05-07T20:27:22.875Z,9.60
2023-05-07T20:29:49.922Z,9.55
2023-05-07T20:32:17.994Z,9.50
2023-05-07T20:34:45.654Z,9.43
2023-05-07T20:37:15.000Z,9.38
2023-05-07T20:39:42.212Z,9.33
2023-05-07T20:42:09.669Z,9.27
2023-05-07T20:44:36.709Z,9.21
2023-05-07T20:47:04.473Z,9.16
2023-05-07T20:49:31.624Z,9.11
2023-05-07T20:51:58.874Z,9.08
2023-05-07T20:54:28.396Z,9.04
2023-05-07T20:56:55.834Z,9.02
2023-05-07T20:59:22.777Z,9.00
2023-05-07T21:01:49.928Z,8.97
2023-05-07T21:04:17.019Z,8.95
2023-05-07T21:06:44.942Z,8.92
2023-05-07T21:09:11.994Z,8.89
2023-05-07T21:11:38.933Z,8.87
2023-05-07T21:14:05.979Z,8.83
2023-05-07T21:16:33.117Z,8.80
2023-05-07T21:19:00.276Z,8.77
2023-05-07T21:21:28.142Z,8.75
2023-05-07T21:23:55.184Z,8.74
2023-05-07T21:26:22.847Z,8.73
2023-05-07T21:28:49.898Z,8.72
2023-05-07T21:31:16.975Z,8.70
2023-05-07T21:33:44.505Z,8.69
2023-05-07T21:36:11.854Z,8.68
2023-05-07T21:38:39.207Z,8.68
2023-05-07T21:41:06.462Z,8.68
2023-05-07T21:43:33.506Z,8.68
2023-05-07T21:46:00.577Z,8.66
2023-05-07T21:48:27.599Z,8.64
2023-05-07T21:51:04.763Z,8.61
2023-05-07T21:53:31.929Z,8.60
2023-05-07T21:56:03.076Z,8.58
2023-05-07T21:58:31.367Z,8.56
2023-05-07T22:00:58.600Z,8.56
2023-05-07T22:03:25.701Z,8.55
2023-05-07T22:05:52.907Z,8.55
2023-05-07T22:08:20.055Z,8.56
2023-05-07T22:10:46.989Z,8.55
2023-05-07T22:13:14.101Z,8.55
2023-05-07T22:15:49.634Z,8.54
2023-05-07T22:18:23.710Z,8.54
2023-05-07T22:20:52.085Z,8.57
2023-05-07T22:23:19.323Z,8.60
2023-05-07T22:25:46.380Z,8.64
2023-05-07T22:28:13.422Z,8.66
2023-05-07T22:30:40.582Z,8.69
2023-05-07T22:33:07.697Z,8.71
2023-05-07T22:35:34.874Z,8.76
2023-05-07T22:38:01.950Z,8.82
2023-05-07T22:40:29.577Z,8.87
2023-05-07T22:42:56.517Z,8.91
2023-05-07T22:45:23.570Z,8.96
2023-05-07T22:47:50.702Z,9.00
2023-05-07T22:50:18.436Z,9.04
2023-05-07T22:52:45.433Z,9.08
2023-05-07T22:55:12.398Z,9.11
2023-05-07T22:57:39.421Z,9.13
2023-05-07T23:00:07.256Z,9.16
2023-05-07T23:02:34.316Z,9.17
2023-05-07T23:05:01.942Z,9.18
2023-05-07T23:07:29.141Z,9.19
2023-05-07T23:09:56.189Z,9.21
2023-05-07T23:12:23.241Z,9.23
2023-05-07T23:14:50.173Z,9.26
2023-05-07T23:17:17.356Z,9.26
2023-05-07T23:19:44.433Z,9.26
2023-05-07T23:22:12.467Z,9.26
2023-05-07T23:24:39.907Z,9.27
2023-05-07T23:27:07.275Z,9.26
2023-05-07T23:29:34.616Z,9.25
2023-05-07T23:32:02.098Z,9.23
2023-05-07T23:34:29.010Z,9.24
2023-05-07T23:36:55.964Z,9.24
2023-05-07T23:39:23.003Z,9.23
2023-05-07T23:41:50.055Z,9.20
2023-05-07T23:44:16.995Z,9.15
2023-05-07T23:46:44.865Z,9.11
2023-05-07T23:49:12.022Z,9.06
2023-05-07T23:51:39.295Z,9.03
2023-05-07T23:54:07.127Z,8.98
2023-05-07T23:56:34.385Z,8.97
2023-05-07T23:59:01.526Z,8.93
